Time;durP1;ratioP1;P1;durP2;ratioP2;P2;SDS_P1;SDS_P2;PMS_P1;PMS_P2;Temp;Humidity;BMP_temperature;BMP_pressure;BME280_temperature;BME280_humidity;BME280_pressure;Samples;Min_cycle;Max_cycle;Signal;HPM_P1;HPM_P2
2022/05/14 00:01:08;;;;;;;1999.90;999.90;;;14.20;99.90;;;;;;4972187;28;20417;-70
2022/05/14 00:03:35;;;;;;;1999.90;999.90;;;14.10;99.90;;;;;;4971895;28;20408;-70
2022/05/14 00:06:03;;;;;;;1999.90;999.90;;;14.20;99.90;;;;;;4972148;28;20422;-69
2022/05/14 00:08:30;;;;;;;1999.90;999.90;;;14.10;99.90;;;;;;4971392;28;20445;-70
2022/05/14 00:13:41;;;;;;;1999.90;999.90;;;14.10;99.90;;;;;;4971801;28;20408;-70
2022/05/14 00:16:08;;;;;;;1999.90;999.90;;;14.10;99.90;;;;;;4971447;28;20951;-69
2022/05/14 00:18:35;;;;;;;1999.90;999.90;;;14.00;99.90;;;;;;4971823;28;20410;-69
2022/05/14 00:21:00;;;;;;;1999.90;999.90;;;14.00;99.90;;;;;;4971624;28;20399;-70
2022/05/14 00:23:27;;;;;;;1999.90;999.90;;;13.90;99.90;;;;;;4971720;28;20771;-70
2022/05/14 00:25:53;;;;;;;1999.90;999.90;;;14.00;99.90;;;;;;4971426;28;20173;-70
2022/05/14 00:28:19;;;;;;;1999.90;999.90;;;13.90;99.90;;;;;;4971836;28;20485;-69
2022/05/14 00:30:45;;;;;;;1999.90;999.90;;;13.80;99.90;;;;;;4971911;28;20479;-70
2022/05/14 00:33:11;;;;;;;1999.90;999.90;;;13.80;99.90;;;;;;4971610;28;20407;-69
2022/05/14 00:35:37;;;;;;;1999.90;999.90;;;13.80;99.90;;;;;;4971142;28;20455;-70
2022/05/14 00:38:04;;;;;;;1999.90;999.90;;;13.70;99.90;;;;;;4971212;28;20434;-70
2022/05/14 00:40:36;;;;;;;1999.90;999.90;;;13.80;99.90;;;;;;4970856;28;20169;-70
2022/05/14 00:43:02;;;;;;;1999.90;999.90;;;13.80;99.90;;;;;;4970857;28;20499;-70
2022/05/14 00:45:30;;;;;;;1999.90;999.90;;;13.70;99.90;;;;;;4970634;28;20496;-70
2022/05/14 00:47:58;;;;;;;1999.90;999.90;;;13.70;99.90;;;;;;4970639;28;20432;-70
2022/05/14 00:50:39;;;;;;;1999.90;999.90;;;13.70;99.90;;;;;;4970844;28;20426;-70
2022/05/14 00:53:12;;;;;;;1999.90;999.90;;;13.70;99.90;;;;;;4970802;28;20413;-70
2022/05/14 00:55:39;;;;;;;1999.90;999.90;;;13.60;99.90;;;;;;4970469;28;20399;-70
2022/05/14 00:58:07;;;;;;;1999.90;999.90;;;13.70;99.90;;;;;;4970583;28;20439;-70
2022/05/14 01:00:33;;;;;;;1999.90;999.90;;;13.60;99.90;;;;;;4970617;28;20422;-69
2022/05/14 01:02:58;;;;;;;1999.90;999.90;;;13.60;99.90;;;;;;4970577;28;20412;-70
2022/05/14 01:05:25;;;;;;;1999.90;999.90;;;13.60;99.90;;;;;;4970224;28;20204;-70
2022/05/14 01:07:54;;;;;;;1999.90;999.90;;;13.50;99.90;;;;;;4970343;28;20228;-70
2022/05/14 01:10:22;;;;;;;1999.90;999.90;;;13.50;99.90;;;;;;4970490;28;20402;-70
2022/05/14 01:12:52;;;;;;;1999.90;999.90;;;13.50;99.90;;;;;;4970388;28;20490;-70
2022/05/14 01:15:22;;;;;;;1999.90;999.90;;;13.50;99.90;;;;;;4995438;22;20523;-72
2022/05/14 01:17:48;;;;;;;1999.90;999.90;;;13.40;99.90;;;;;;4913061;29;21015;-71
2022/05/14 01:20:16;;;;;;;1999.90;999.90;;;13.40;99.90;;;;;;4913289;29;20442;-71
2022/05/14 01:23:07;;;;;;;1999.90;999.90;;;13.40;99.90;;;;;;4916463;29;20417;-73
2022/05/14 01:28:31;;;;;;;1999.90;999.90;;;13.20;99.90;;;;;;4916464;29;20613;-73
2022/05/14 01:30:59;;;;;;;1999.90;999.90;;;13.20;99.90;;;;;;4916233;28;20449;-73
2022/05/14 01:33:25;;;;;;;1999.90;999.90;;;13.10;99.90;;;;;;4916300;29;20171;-73
2022/05/14 01:35:51;;;;;;;1999.90;999.90;;;13.00;99.90;;;;;;4915996;29;20432;-73
2022/05/14 01:38:19;;;;;;;1999.90;999.90;;;13.00;99.90;;;;;;4916224;28;20419;-72
2022/05/14 01:40:44;;;;;;;1999.90;999.90;;;13.00;99.90;;;;;;4916208;29;20179;-72
2022/05/14 01:43:10;;;;;;;1999.90;999.90;;;13.00;99.90;;;;;;4916105;29;20787;-71
2022/05/14 01:45:36;;;;;;;1999.90;999.90;;;12.90;99.90;;;;;;4915625;29;20289;-71
2022/05/14 01:48:02;;;;;;;1999.90;999.90;;;12.90;99.90;;;;;;4916126;29;20501;-71
2022/05/14 01:50:28;;;;;;;1999.90;999.90;;;12.90;99.90;;;;;;4916087;29;20186;-72
2022/05/14 01:52:54;;;;;;;1999.90;999.90;;;12.80;99.90;;;;;;4915980;29;20409;-72
2022/05/14 01:55:19;;;;;;;1999.90;999.90;;;12.80;99.90;;;;;;4915659;28;20437;-71
2022/05/14 01:57:45;;;;;;;1999.90;999.90;;;12.70;99.90;;;;;;4915959;28;20186;-71
2022/05/14 02:00:15;;;;;;;1999.90;999.90;;;12.80;99.90;;;;;;4915916;28;20202;-71
2022/05/14 02:02:41;;;;;;;1999.90;999.90;;;12.70;99.90;;;;;;4915862;29;20289;-71
2022/05/14 02:05:07;;;;;;;1999.90;999.90;;;12.70;99.90;;;;;;4915373;29;20469;-71
2022/05/14 02:07:33;;;;;;;1999.90;999.90;;;12.60;99.90;;;;;;4915708;29;20915;-71
2022/05/14 02:09:58;;;;;;;1999.90;999.90;;;12.70;99.90;;;;;;4915739;28;20472;-71
2022/05/14 02:12:24;;;;;;;1999.90;999.90;;;12.60;99.90;;;;;;4915767;28;20376;-71
2022/05/14 02:14:49;;;;;;;1999.90;999.90;;;12.60;99.90;;;;;;4915206;28;20174;-71
2022/05/14 02:17:15;;;;;;;1999.90;999.90;;;12.60;99.90;;;;;;4915740;28;20668;-71
2022/05/14 02:19:40;;;;;;;1999.90;999.90;;;12.50;99.90;;;;;;4915626;28;20182;-72
2022/05/14 02:22:07;;;;;;;1999.90;999.90;;;12.50;99.90;;;;;;4915598;28;20211;-73
2022/05/14 02:24:33;;;;;;;1999.90;999.90;;;12.50;99.90;;;;;;4915150;29;20201;-73
2022/05/14 02:26:59;;;;;;;1999.90;999.90;;;12.40;99.90;;;;;;4915322;29;20435;-72
2022/05/14 02:29:25;;;;;;;1999.90;999.90;;;12.40;99.90;;;;;;4915489;28;20778;-73
2022/05/14 02:31:51;;;;;;;1999.90;999.90;;;12.40;99.90;;;;;;4914733;28;20185;-71
2022/05/14 02:34:17;;;;;;;1999.90;999.90;;;12.30;99.90;;;;;;4914902;29;20413;-71
2022/05/14 02:36:43;;;;;;;1999.90;999.90;;;12.30;99.90;;;;;;4915378;28;20468;-71
2022/05/14 02:39:09;;;;;;;1999.90;999.90;;;12.30;99.90;;;;;;4915325;28;20790;-72
2022/05/14 02:41:35;;;;;;;1999.90;999.90;;;12.20;99.90;;;;;;4915318;29;20658;-71
2022/05/14 02:44:01;;;;;;;1999.90;999.90;;;12.20;99.90;;;;;;4914881;29;20457;-71
2022/05/14 02:46:27;;;;;;;1999.90;999.90;;;12.20;99.90;;;;;;4915257;28;20189;-71
2022/05/14 02:48:53;;;;;;;1999.90;999.90;;;12.20;99.90;;;;;;4915235;29;20636;-72
2022/05/14 02:51:18;;;;;;;1999.90;999.90;;;12.10;99.90;;;;;;4915141;28;20418;-71
2022/05/14 02:53:44;;;;;;;1999.90;999.90;;;12.10;99.90;;;;;;4915098;28;20410;-72
2022/05/14 02:56:09;;;;;;;1999.90;999.90;;;12.10;99.90;;;;;;4914714;28;20203;-72
2022/05/14 03:01:20;;;;;;;1999.90;999.90;;;12.00;99.90;;;;;;4915084;29;20181;-71
2022/05/14 03:03:46;;;;;;;1999.90;999.90;;;12.00;99.90;;;;;;4914982;28;21115;-71
2022/05/14 03:06:12;;;;;;;1999.90;999.90;;;11.90;99.90;;;;;;4914610;29;21004;-71
2022/05/14 03:08:37;;;;;;;1999.90;999.90;;;11.90;99.90;;;;;;4914904;29;20413;-71
2022/05/14 03:11:03;;;;;;;1999.90;999.90;;;11.80;99.90;;;;;;4914954;29;20405;-71
2022/05/14 03:13:30;;;;;;;1999.90;999.90;;;11.80;99.90;;;;;;4914894;28;20214;-71
2022/05/14 03:15:56;;;;;;;1999.90;999.90;;;11.80;99.90;;;;;;4914335;29;20244;-71
2022/05/14 03:18:21;;;;;;;1999.90;999.90;;;11.80;99.90;;;;;;4914786;29;20442;-71
2022/05/14 03:20:47;;;;;;;1999.90;999.90;;;11.80;99.90;;;;;;5012967;28;20269;-71
2022/05/14 03:23:13;;;;;;;1999.90;999.90;;;11.70;99.90;;;;;;4914692;28;20173;-72
2022/05/14 03:25:39;;;;;;;1999.90;999.90;;;11.70;99.90;;;;;;4914264;29;20210;-72
2022/05/14 03:28:04;;;;;;;1999.90;999.90;;;11.80;99.90;;;;;;4914550;28;20416;-74
2022/05/14 03:30:30;;;;;;;1999.90;999.90;;;11.80;99.90;;;;;;4914607;29;20180;-72
2022/05/14 03:32:56;;;;;;;1999.90;999.90;;;11.80;99.90;;;;;;4914488;29;20176;-72
2022/05/14 03:35:21;;;;;;;1999.90;999.90;;;11.70;99.90;;;;;;4914267;28;20468;-73
2022/05/14 03:37:47;;;;;;;1999.90;999.90;;;11.70;99.90;;;;;;4914465;28;20204;-72
2022/05/14 03:40:13;;;;;;;1999.90;999.90;;;11.70;99.90;;;;;;4914517;28;20173;-72
2022/05/14 03:42:39;;;;;;;1999.90;999.90;;;11.60;99.90;;;;;;4914393;29;20203;-72
2022/05/14 03:45:05;;;;;;;1999.90;999.90;;;11.60;99.90;;;;;;4913831;28;20465;-72
2022/05/14 03:47:31;;;;;;;1999.90;999.90;;;11.60;99.90;;;;;;4914335;29;20177;-72
2022/05/14 03:49:56;;;;;;;1999.90;999.90;;;11.60;99.90;;;;;;4914359;28;20412;-71
2022/05/14 03:52:22;;;;;;;1999.90;999.90;;;11.60;99.90;;;;;;4914197;29;20255;-72
2022/05/14 03:54:47;;;;;;;1999.90;999.90;;;11.50;99.90;;;;;;4913852;28;20196;-71
2022/05/14 03:57:13;;;;;;;1999.90;999.90;;;11.50;99.90;;;;;;4914150;28;20591;-71
2022/05/14 03:59:39;;;;;;;1999.90;999.90;;;11.40;99.90;;;;;;4914140;29;20168;-72
2022/05/14 04:02:05;;;;;;;1999.90;999.90;;;11.40;99.90;;;;;;4914173;28;20914;-71
2022/05/14 04:04:31;;;;;;;1999.90;999.90;;;11.40;99.90;;;;;;4913838;28;20176;-71
2022/05/14 04:06:58;;;;;;;1999.90;999.90;;;11.50;99.90;;;;;;4913908;29;20799;-72
2022/05/14 04:09:24;;;;;;;1999.90;999.90;;;11.50;99.90;;;;;;4914020;29;20408;-71
2022/05/14 04:11:51;;;;;;;1999.90;999.90;;;11.50;99.90;;;;;;4913913;28;20412;-72
2022/05/14 04:14:17;;;;;;;1999.90;999.90;;;11.50;99.90;;;;;;4913544;29;20189;-71
2022/05/14 04:16:43;;;;;;;1999.90;999.90;;;11.50;99.90;;;;;;4913771;28;20965;-71
2022/05/14 04:19:08;;;;;;;1999.90;999.90;;;11.50;99.90;;;;;;4913889;28;20511;-71
2022/05/14 04:21:34;;;;;;;1999.90;999.90;;;11.50;99.90;;;;;;4913872;28;20177;-71
2022/05/14 04:24:00;;;;;;;1999.90;999.90;;;11.50;99.90;;;;;;4913597;29;20668;-73
2022/05/14 04:26:26;;;;;;;1999.90;999.90;;;11.50;99.90;;;;;;4913600;28;20424;-71
2022/05/14 04:28:52;;;;;;;1999.90;999.90;;;11.50;99.90;;;;;;4913836;28;20439;-71
2022/05/14 04:31:21;;;;;;;1999.90;999.90;;;11.50;99.90;;;;;;4913670;29;20421;-72
2022/05/14 04:33:47;;;;;;;1999.90;999.90;;;11.40;99.90;;;;;;4913544;29;20409;-71
2022/05/14 04:36:12;;;;;;;1999.90;999.90;;;11.50;99.90;;;;;;4913231;29;20420;-71
2022/05/14 04:38:38;;;;;;;1999.90;999.90;;;11.40;99.90;;;;;;4913613;29;20495;-72
2022/05/14 04:41:04;;;;;;;1999.90;999.90;;;11.40;99.90;;;;;;4913524;28;20177;-71
2022/05/14 04:43:31;;;;;;;1999.90;999.90;;;11.40;99.90;;;;;;4913537;28;20246;-71
2022/05/14 04:45:56;;;;;;;1999.90;999.90;;;11.40;99.90;;;;;;4913176;29;20192;-72
2022/05/14 04:48:22;;;;;;;1999.90;999.90;;;11.30;99.90;;;;;;4913463;28;20413;-71
2022/05/14 04:50:48;;;;;;;1999.90;999.90;;;11.40;99.90;;;;;;4913411;29;20183;-71
2022/05/14 04:53:14;;;;;;;1999.90;999.90;;;11.40;99.90;;;;;;4913397;28;20172;-71
2022/05/14 04:55:40;;;;;;;1999.90;999.90;;;11.50;99.90;;;;;;4912256;29;20258;-71
2022/05/14 04:58:09;;;;;;;1999.90;999.90;;;11.50;99.90;;;;;;4913315;28;20413;-71
2022/05/14 05:00:38;;;;;;;1999.90;999.90;;;11.60;99.90;;;;;;4913335;29;20451;-73
2022/05/14 05:03:19;;;;;;;1999.90;999.90;;;11.70;99.90;;;;;;4913304;29;20929;-71
2022/05/14 05:05:46;;;;;;;1999.90;999.90;;;11.70;99.90;;;;;;4912927;29;20531;-72
2022/05/14 05:08:12;;;;;;;1999.90;999.90;;;11.70;99.90;;;;;;4913189;29;20417;-71
2022/05/14 05:10:38;;;;;;;1999.90;999.90;;;11.80;99.90;;;;;;4913169;29;20413;-72
2022/05/14 05:13:09;;;;;;;1999.90;999.90;;;11.80;99.90;;;;;;4913211;28;20177;-71
2022/05/14 05:15:35;;;;;;;1999.90;999.90;;;11.90;99.90;;;;;;4912617;29;20473;-72
2022/05/14 05:18:01;;;;;;;1999.90;999.90;;;12.00;99.90;;;;;;4913102;28;20417;-71
2022/05/14 05:20:27;;;;;;;1999.90;999.90;;;12.10;99.90;;;;;;4913077;29;20259;-72
2022/05/14 05:22:52;;;;;;;1999.90;999.90;;;12.10;99.90;;;;;;4913026;28;21026;-71
2022/05/14 05:25:18;;;;;;;1999.90;999.90;;;12.20;99.90;;;;;;4912635;28;20724;-71
2022/05/14 05:27:43;;;;;;;1999.90;999.90;;;12.30;99.90;;;;;;4913085;28;20176;-71
2022/05/14 05:30:10;;;;;;;1999.90;999.90;;;12.30;99.90;;;;;;4912995;28;20260;-72
2022/05/14 05:32:36;;;;;;;1999.90;999.90;;;12.40;99.90;;;;;;4912891;29;20169;-71
2022/05/14 05:35:02;;;;;;;1999.90;999.90;;;12.40;99.90;;;;;;4912524;28;20563;-72
2022/05/14 05:37:28;;;;;;;1999.90;999.90;;;12.40;99.90;;;;;;4912838;29;20170;-72
2022/05/14 05:39:54;;;;;;;1999.90;999.90;;;12.50;99.90;;;;;;4912808;29;20413;-71
2022/05/14 05:42:19;;;;;;;1999.90;999.90;;;12.50;99.90;;;;;;4912797;28;20726;-72
2022/05/14 05:44:45;;;;;;;1999.90;999.90;;;12.50;99.90;;;;;;4912446;29;20189;-71
2022/05/14 05:47:11;;;;;;;1999.90;999.90;;;12.50;99.90;;;;;;4912747;28;20178;-71
2022/05/14 05:49:42;;;;;;;1999.90;999.90;;;12.50;99.90;;;;;;4912776;28;20178;-71
2022/05/14 05:52:08;;;;;;;1999.90;999.90;;;12.60;99.90;;;;;;4912649;29;20166;-72
2022/05/14 05:57:18;;;;;;;1999.90;999.90;;;12.60;99.90;;;;;;4901939;29;20989;-71
2022/05/14 05:59:44;;;;;;;1999.90;999.90;;;12.70;99.90;;;;;;4902931;29;20519;-72
2022/05/14 06:02:09;;;;;;;1999.90;999.90;;;12.80;99.90;;;;;;4903232;28;20175;-72
2022/05/14 06:04:36;;;;;;;1999.90;999.90;;;12.90;99.90;;;;;;4893295;29;20272;-71
2022/05/14 06:07:02;;;;;;;1999.90;999.90;;;12.90;99.90;;;;;;4894907;28;20195;-71
2022/05/14 06:09:29;;;;;;;1999.90;999.90;;;13.00;99.90;;;;;;4896902;29;20425;-71
2022/05/14 06:11:55;;;;;;;1999.90;999.90;;;13.00;99.90;;;;;;4896889;29;20472;-71
2022/05/14 06:14:21;;;;;;;1999.90;999.90;;;13.00;99.90;;;;;;4896448;29;20553;-72
2022/05/14 06:16:47;;;;;;;1999.90;999.90;;;13.20;99.90;;;;;;4896723;29;20203;-71
2022/05/14 06:19:14;;;;;;;1999.90;999.90;;;13.20;99.90;;;;;;4896763;28;20417;-72
2022/05/14 06:21:40;;;;;;;1999.90;999.90;;;13.20;99.90;;;;;;4896873;28;20928;-72
2022/05/14 06:24:07;;;;;;;1999.90;999.90;;;13.30;99.90;;;;;;4896425;29;20416;-72
2022/05/14 06:26:33;;;;;;;1999.90;999.90;;;13.30;99.90;;;;;;4896596;29;20462;-72
2022/05/14 06:28:59;;;;;;;1999.90;999.90;;;13.40;99.90;;;;;;4896649;28;20453;-72
2022/05/14 06:31:25;;;;;;;1999.90;999.90;;;13.40;99.90;;;;;;4896580;29;20171;-72
2022/05/14 06:33:51;;;;;;;1999.90;999.90;;;13.50;99.90;;;;;;4896506;29;20418;-72
2022/05/14 06:36:16;;;;;;;1999.90;999.90;;;13.50;99.90;;;;;;4896293;28;20521;-72
2022/05/14 06:38:42;;;;;;;1999.90;999.90;;;13.60;99.90;;;;;;4896435;28;20172;-72
2022/05/14 06:41:11;;;;;;;1999.90;999.90;;;13.70;99.90;;;;;;4896540;28;20414;-72
2022/05/14 06:43:38;;;;;;;1999.90;999.90;;;13.80;99.90;;;;;;4896476;29;20599;-72
2022/05/14 06:46:04;;;;;;;1999.90;999.90;;;13.80;99.90;;;;;;4896024;29;20516;-71
2022/05/14 06:48:31;;;;;;;1999.90;999.90;;;13.90;99.90;;;;;;4896340;29;20500;-71
2022/05/14 06:51:00;;;;;;;1999.90;999.90;;;13.90;99.90;;;;;;4896331;29;20284;-71
2022/05/14 06:53:25;;;;;;;1999.90;999.90;;;14.00;99.90;;;;;;4896227;29;20975;-71
2022/05/14 06:55:54;;;;;;;1999.90;999.90;;;14.00;99.90;;;;;;4895799;29;20494;-71
2022/05/14 06:58:24;;;;;;;1999.90;999.90;;;14.00;99.90;;;;;;4896204;29;20199;-71
2022/05/14 07:00:50;;;;;;;1999.90;999.90;;;14.10;99.90;;;;;;4896263;29;20401;-71
2022/05/14 07:08:45;;;;;;;1999.90;999.90;;;14.30;99.90;;;;;;4896040;29;20933;-71
2022/05/14 07:11:12;;;;;;;1999.90;999.90;;;14.30;99.90;;;;;;4895964;29;20474;-71
2022/05/14 07:13:38;;;;;;;1999.90;999.90;;;14.40;99.90;;;;;;4914486;28;20436;-71
2022/05/14 07:16:04;;;;;;;1999.90;999.90;;;14.50;99.90;;;;;;4975719;22;20503;-70
2022/05/14 07:18:31;;;;;;;1999.90;999.90;;;14.60;99.90;;;;;;4968558;28;20407;-70
2022/05/14 07:20:56;;;;;;;1999.90;999.90;;;14.70;99.90;;;;;;4971745;28;20574;-70
2022/05/14 07:23:22;;;;;;;1999.90;999.90;;;14.80;99.90;;;;;;4971346;28;20406;-70
2022/05/14 07:25:47;;;;;;;1999.90;999.90;;;14.90;99.90;;;;;;4970990;28;20704;-70
2022/05/14 07:28:13;;;;;;;1999.90;999.90;;;15.00;99.90;;;;;;4971680;28;20173;-70
2022/05/14 07:30:39;;;;;;;1999.90;999.90;;;15.00;99.90;;;;;;4971676;28;20182;-70
2022/05/14 07:33:05;;;;;;;1999.90;999.90;;;15.00;99.90;;;;;;4971153;28;20521;-70
2022/05/14 07:35:33;;;;;;;1999.90;999.90;;;15.10;99.90;;;;;;4971073;28;20211;-70
2022/05/14 07:38:02;;;;;;;1999.90;999.90;;;15.20;99.90;;;;;;4971418;28;20979;-70
2022/05/14 07:40:30;;;;;;;1999.90;999.90;;;15.30;99.90;;;;;;4971117;28;20409;-70
2022/05/14 07:43:00;;;;;;;1999.90;999.90;;;15.30;99.90;;;;;;4971383;28;20495;-70
2022/05/14 07:45:32;;;;;;;1999.90;999.90;;;15.50;99.90;;;;;;4970998;28;21016;-70
2022/05/14 07:48:00;;;;;;;1999.90;999.90;;;15.50;99.90;;;;;;4970612;28;20440;-69
2022/05/14 07:50:26;;;;;;;1999.90;999.90;;;15.50;99.90;;;;;;4971649;28;20932;-71
2022/05/14 07:52:52;;;;;;;1999.90;999.90;;;15.60;99.90;;;;;;4971604;28;20835;-69
2022/05/14 07:55:18;;;;;;;1999.90;999.90;;;15.80;99.90;;;;;;4971235;28;20460;-69
2022/05/14 07:57:44;;;;;;;1999.90;999.90;;;15.90;99.90;;;;;;4971570;28;20425;-69
2022/05/14 08:00:11;;;;;;;1999.90;999.90;;;15.80;99.90;;;;;;4971420;28;20413;-70
2022/05/14 08:02:39;;;;;;;1999.90;999.90;;;15.90;99.90;;;;;;4971283;28;20177;-70
2022/05/14 08:05:08;;;;;;;1999.90;999.90;;;16.00;99.90;;;;;;4971172;28;20425;-70
2022/05/14 08:07:34;;;;;;;1999.90;999.90;;;16.00;99.90;;;;;;4971395;28;20429;-70
2022/05/14 08:10:00;;;;;;;1999.90;999.90;;;16.10;99.90;;;;;;4971330;28;20417;-70
2022/05/14 08:12:34;;;;;;;1999.90;999.90;;;16.30;99.90;;;;;;4971244;28;20503;-70
2022/05/14 08:14:59;;;;;;;1999.90;999.90;;;16.30;99.90;;;;;;4970821;28;20461;-70
2022/05/14 08:17:26;;;;;;;1999.90;999.90;;;16.40;99.90;;;;;;4953209;28;20844;-70
2022/05/14 08:19:52;;;;;;;1999.90;999.90;;;16.50;99.90;;;;;;4970914;28;20185;-70
2022/05/14 08:25:02;;;;;;;1999.90;999.90;;;16.60;99.90;;;;;;4970885;28;20235;-70
2022/05/14 08:27:27;;;;;;;1999.90;999.90;;;16.60;99.90;;;;;;4970908;28;20439;-70
2022/05/14 08:29:53;;;;;;;1999.90;999.90;;;16.70;99.90;;;;;;4970168;28;20185;-70
2022/05/14 08:32:20;;;;;;;1999.90;999.90;;;16.70;99.90;;;;;;4971014;28;20185;-70
2022/05/14 08:34:46;;;;;;;1999.90;999.90;;;16.70;99.90;;;;;;4972767;28;20232;-70
2022/05/14 08:37:12;;;;;;;1999.90;999.90;;;16.60;99.90;;;;;;4975067;28;20437;-70
2022/05/14 08:39:38;;;;;;;1999.90;999.90;;;16.70;99.90;;;;;;4975461;28;20186;-70
2022/05/14 08:42:08;;;;;;;1999.90;999.90;;;16.90;99.90;;;;;;4975834;28;21057;-70
2022/05/14 08:44:34;;;;;;;1999.90;999.90;;;17.20;99.90;;;;;;4974742;28;20172;-70
2022/05/14 08:47:05;;;;;;;1999.90;999.90;;;17.30;99.90;;;;;;4975654;28;20439;-70
2022/05/14 08:50:01;;;;;;;1999.90;999.90;;;17.30;99.90;;;;;;4976358;28;20541;-69
2022/05/14 08:52:29;;;;;;;1999.90;999.90;;;17.40;99.90;;;;;;4958950;28;20886;-70
2022/05/14 08:55:04;;;;;;;1999.90;999.90;;;17.50;99.90;;;;;;4975298;28;20522;-69
2022/05/14 08:57:46;;;;;;;1999.90;999.90;;;17.50;99.90;;;;;;4975432;28;20410;-70
2022/05/14 09:00:12;;;;;;;1999.90;999.90;;;17.60;99.90;;;;;;4973117;28;20449;-70
2022/05/14 09:02:43;;;;;;;1999.90;999.90;;;17.70;99.90;;;;;;4972405;28;20414;-70
2022/05/14 09:05:29;;;;;;;1999.90;999.90;;;17.80;99.90;;;;;;4971923;28;20513;-70
2022/05/14 09:07:54;;;;;;;1999.90;999.90;;;17.90;99.90;;;;;;4973894;28;20406;-70
2022/05/14 09:10:25;;;;;;;1999.90;999.90;;;17.90;99.90;;;;;;4971051;28;20414;-70
2022/05/14 09:13:08;;;;;;;1999.90;999.90;;;18.00;99.90;;;;;;4970477;28;20164;-70
2022/05/14 09:15:34;;;;;;;1999.90;999.90;;;18.10;99.90;;;;;;4969905;28;20866;-70
2022/05/14 09:18:09;;;;;;;1999.90;999.90;;;18.30;99.90;;;;;;4970343;28;20908;-70
2022/05/14 09:20:42;;;;;;;1999.90;999.90;;;18.40;99.90;;;;;;4970358;28;20409;-70
2022/05/14 09:23:07;;;;;;;1999.90;999.90;;;18.40;99.90;;;;;;4970382;28;20420;-70
2022/05/14 09:25:39;;;;;;;1999.90;999.90;;;18.60;99.90;;;;;;4969971;28;20476;-70
2022/05/14 09:28:21;;;;;;;1999.90;999.90;;;18.70;99.90;;;;;;4970272;28;20250;-70
2022/05/14 09:30:55;;;;;;;1999.90;999.90;;;18.70;99.90;;;;;;4970307;28;20424;-70
2022/05/14 09:33:27;;;;;;;1999.90;999.90;;;18.80;99.90;;;;;;4970300;28;20413;-70
2022/05/14 09:35:58;;;;;;;1999.90;999.90;;;18.80;99.90;;;;;;4969801;28;20454;-71
2022/05/14 09:38:25;;;;;;;1999.90;999.90;;;18.90;99.90;;;;;;4970153;28;20773;-70
2022/05/14 09:40:52;;;;;;;1999.90;999.90;;;19.10;99.90;;;;;;4970077;28;20408;-71
2022/05/14 09:43:18;;;;;;;1999.90;999.90;;;19.20;99.90;;;;;;4973346;28;20412;-70
2022/05/14 09:46:07;;;;;;;1999.90;999.90;;;19.20;99.90;;;;;;4973247;28;20431;-70
2022/05/14 09:48:49;;;;;;;1999.90;999.90;;;19.30;99.90;;;;;;4973514;28;20546;-70
2022/05/14 09:51:51;;;;;;;1999.90;999.90;;;19.60;99.90;;;;;;4973661;28;20381;-70
2022/05/14 09:54:25;;;;;;;1999.90;999.90;;;19.70;99.90;;;;;;4932993;28;20453;-70
2022/05/14 09:57:05;;;;;;;1999.90;999.90;;;19.90;99.90;;;;;;4973310;28;20804;-70
2022/05/14 09:59:57;;;;;;;1999.90;999.90;;;20.00;99.90;;;;;;4973300;28;20406;-70
2022/05/14 10:02:44;;;;;;;1999.90;999.90;;;20.20;99.90;;;;;;4973510;28;20853;-70
2022/05/14 10:05:11;;;;;;;1999.90;999.90;;;20.20;99.90;;;;;;4972958;28;20416;-70
2022/05/14 10:07:47;;;;;;;1999.90;999.90;;;20.40;99.90;;;;;;4975363;28;20417;-70
2022/05/14 10:11:00;;;;;;;1999.90;999.90;;;20.50;99.90;;;;;;4974981;28;20404;-70
2022/05/14 10:13:37;;;;;;;1999.90;999.90;;;20.70;99.90;;;;;;4974953;28;20445;-70
2022/05/14 10:16:34;;;;;;;1999.90;999.90;;;20.80;99.90;;;;;;4974615;28;21017;-70
2022/05/14 10:19:18;;;;;;;1999.90;999.90;;;21.00;99.90;;;;;;4906605;28;20424;-70
2022/05/14 10:21:53;;;;;;;1999.90;999.90;;;20.90;99.90;;;;;;4974949;28;20408;-70
2022/05/14 10:27:50;;;;;;;1999.90;999.90;;;21.20;99.90;;;;;;4975183;28;20399;-70
2022/05/14 10:30:31;;;;;;;1999.90;999.90;;;21.10;99.90;;;;;;4975493;28;20769;-70
2022/05/14 10:33:04;;;;;;;1999.90;999.90;;;21.30;99.90;;;;;;4975691;28;20407;-70
2022/05/14 10:35:53;;;;;;;1999.90;999.90;;;21.40;99.90;;;;;;4975096;28;20785;-70
2022/05/14 10:38:23;;;;;;;1999.90;999.90;;;21.50;99.90;;;;;;4974455;28;20766;-70
2022/05/14 10:40:53;;;;;;;1999.90;999.90;;;21.50;99.90;;;;;;4974461;28;20487;-70
2022/05/14 10:43:44;;;;;;;1999.90;999.90;;;21.60;99.90;;;;;;4975181;28;20385;-70
2022/05/14 10:46:12;;;;;;;1999.90;999.90;;;21.60;99.90;;;;;;4973431;28;20433;-70
2022/05/14 10:49:02;;;;;;;1999.90;999.90;;;21.40;99.90;;;;;;4975283;28;20506;-70
2022/05/14 10:51:31;;;;;;;1999.90;999.90;;;21.50;99.90;;;;;;4974844;28;20392;-70
2022/05/14 10:53:59;;;;;;;1999.90;999.90;;;21.60;99.90;;;;;;4973510;28;20789;-70
2022/05/14 10:56:33;;;;;;;1999.90;999.90;;;21.80;99.90;;;;;;4974764;28;20531;-71
2022/05/14 10:59:08;;;;;;;1999.90;999.90;;;22.10;99.90;;;;;;4973335;28;20757;-70
2022/05/14 11:01:51;;;;;;;1999.90;999.90;;;22.30;99.90;;;;;;4972474;28;20409;-70
2022/05/14 11:04:19;;;;;;;1999.90;999.90;;;22.40;99.90;;;;;;4972162;28;20389;-70
2022/05/14 11:06:54;;;;;;;1999.90;999.90;;;22.70;99.90;;;;;;4972343;28;20432;-70
2022/05/14 11:09:32;;;;;;;1999.90;999.90;;;22.90;99.90;;;;;;4972428;28;20412;-70
2022/05/14 11:12:05;;;;;;;1999.90;999.90;;;23.10;99.90;;;;;;4972164;28;20535;-70
2022/05/14 11:14:42;;;;;;;1999.90;999.90;;;22.80;99.90;;;;;;4971941;28;20468;-70
2022/05/14 11:17:23;;;;;;;1999.90;999.90;;;22.70;99.90;;;;;;4972006;28;20421;-70
2022/05/14 11:19:49;;;;;;;1999.90;999.90;;;22.90;99.90;;;;;;4972237;28;20755;-70
2022/05/14 11:22:45;;;;;;;1999.90;999.90;;;23.30;99.90;;;;;;4972111;28;20902;-70
2022/05/14 11:25:22;;;;;;;1999.90;999.90;;;23.50;99.90;;;;;;4970313;28;20421;-70
2022/05/14 11:28:11;;;;;;;1999.90;999.90;;;23.50;99.70;;;;;;4972056;28;20405;-70
2022/05/14 11:30:43;;;;;;;1999.90;999.90;;;23.50;98.80;;;;;;4972020;28;20773;-70
2022/05/14 11:33:32;;;;;;;1999.90;999.90;;;23.60;98.70;;;;;;4971868;28;20455;-70
2022/05/14 11:36:15;;;;;;;1999.90;999.90;;;23.60;99.10;;;;;;4971789;28;20513;-70
2022/05/14 11:38:44;;;;;;;1999.90;999.90;;;23.60;98.40;;;;;;4971878;28;20431;-70
2022/05/14 11:41:42;;;;;;;1999.90;999.90;;;23.40;98.10;;;;;;4971709;28;20409;-70
2022/05/14 11:44:08;;;;;;;1999.90;999.90;;;23.60;97.50;;;;;;4928890;28;20403;-70
2022/05/14 11:46:48;;;;;;;1999.90;999.90;;;23.70;96.80;;;;;;4971614;28;20433;-70
2022/05/14 11:49:33;;;;;;;1999.90;999.90;;;23.80;94.90;;;;;;4971644;28;20174;-70
2022/05/14 11:52:12;;;;;;;1999.90;999.90;;;24.00;96.30;;;;;;4971587;28;20381;-70
2022/05/14 11:55:01;;;;;;;1999.90;999.90;;;23.80;98.80;;;;;;4971317;28;20448;-70
2022/05/14 11:57:34;;;;;;;1999.90;999.90;;;23.40;96.50;;;;;;4971886;28;20434;-70
2022/05/14 12:00:39;;;;;;;1999.90;999.90;;;23.60;96.10;;;;;;4971487;28;20855;-70
2022/05/14 12:03:23;;;;;;;1999.90;999.90;;;24.50;96.20;;;;;;4928950;28;20400;-70
2022/05/14 12:05:58;;;;;;;1999.90;999.90;;;25.30;90.60;;;;;;4970962;28;20422;-70
2022/05/14 12:08:40;;;;;;;1999.90;999.90;;;25.80;84.10;;;;;;4971251;28;20918;-70
2022/05/14 12:11:47;;;;;;;1999.90;999.90;;;26.80;79.80;;;;;;4971296;28;20485;-70
2022/05/14 12:14:16;;;;;;;1999.90;999.90;;;27.20;74.10;;;;;;4970945;28;20976;-70
2022/05/14 12:16:48;;;;;;;1999.90;999.90;;;27.50;59.70;;;;;;4971289;28;21030;-70
2022/05/14 12:19:23;;;;;;;1999.90;999.90;;;28.00;51.50;;;;;;4971252;28;20402;-71
2022/05/14 12:21:54;;;;;;;1999.90;999.90;;;28.30;51.70;;;;;;4971163;28;20402;-71
2022/05/14 12:24:27;;;;;;;1999.90;999.90;;;28.70;48.40;;;;;;4970853;28;20410;-71
2022/05/14 12:26:53;;;;;;;1999.90;999.90;;;28.90;45.30;;;;;;4971054;28;20466;-71
2022/05/14 12:29:26;;;;;;;1999.90;999.90;;;28.90;45.20;;;;;;4970973;28;20409;-70
2022/05/14 12:34:50;;;;;;;1999.90;999.90;;;29.60;39.40;;;;;;4970681;28;20449;-71
2022/05/14 12:37:17;;;;;;;1999.90;999.90;;;29.90;41.10;;;;;;4970885;28;20422;-70